sensor_id;sensor_type;location;lat;lon;timestamp;P1;durP1;ratioP1;P2;durP2;ratioP2
4047;SDS011;2038;51.728;6.674;2022-12-18T00:01:24;66.83;;;34.50;;
4047;SDS011;2038;51.728;6.674;2022-12-18T00:03:54;67.93;;;32.60;;
4047;SDS011;2038;51.728;6.674;2022-12-18T00:06:21;73.20;;;33.33;;
4047;SDS011;2038;51.728;6.674;2022-12-18T00:08:49;77.13;;;33.27;;
4047;SDS011;2038;51.728;6.674;2022-12-18T00:11:17;61.40;;;30.80;;
4047;SDS011;2038;51.728;6.674;2022-12-18T00:13:46;70.00;;;30.60;;
4047;SDS011;2038;51.728;6.674;2022-12-18T00:16:14;72.60;;;31.30;;
4047;SDS011;2038;51.728;6.674;2022-12-18T00:18:47;52.17;;;28.43;;
4047;SDS011;2038;51.728;6.674;2022-12-18T00:21:16;67.53;;;33.10;;
4047;SDS011;2038;51.728;6.674;2022-12-18T00:23:44;67.40;;;32.80;;
4047;SDS011;2038;51.728;6.674;2022-12-18T00:26:25;67.43;;;30.50;;
4047;SDS011;2038;51.728;6.674;2022-12-18T00:29:03;56.93;;;28.90;;
4047;SDS011;2038;51.728;6.674;2022-12-18T00:31:38;68.03;;;33.33;;
4047;SDS011;2038;51.728;6.674;2022-12-18T00:34:06;60.67;;;30.20;;
4047;SDS011;2038;51.728;6.674;2022-12-18T00:36:35;67.33;;;32.43;;
4047;SDS011;2038;51.728;6.674;2022-12-18T00:39:04;62.73;;;31.13;;
4047;SDS011;2038;51.728;6.674;2022-12-18T00:41:30;48.87;;;26.27;;
4047;SDS011;2038;51.728;6.674;2022-12-18T00:44:16;41.83;;;23.50;;
4047;SDS011;2038;51.728;6.674;2022-12-18T00:46:43;58.03;;;28.50;;
4047;SDS011;2038;51.728;6.674;2022-12-18T00:49:15;64.87;;;30.67;;
4047;SDS011;2038;51.728;6.674;2022-12-18T00:51:43;57.10;;;28.60;;
4047;SDS011;2038;51.728;6.674;2022-12-18T00:54:10;46.10;;;24.20;;
4047;SDS011;2038;51.728;6.674;2022-12-18T00:56:37;47.40;;;25.57;;
4047;SDS011;2038;51.728;6.674;2022-12-18T00:59:04;61.77;;;29.30;;
4047;SDS011;2038;51.728;6.674;2022-12-18T01:01:31;49.47;;;27.20;;
4047;SDS011;2038;51.728;6.674;2022-12-18T01:03:57;69.33;;;33.13;;
4047;SDS011;2038;51.728;6.674;2022-12-18T01:06:26;57.90;;;29.53;;
4047;SDS011;2038;51.728;6.674;2022-12-18T01:08:52;58.97;;;30.00;;
4047;SDS011;2038;51.728;6.674;2022-12-18T01:11:20;63.87;;;29.27;;
4047;SDS011;2038;51.728;6.674;2022-12-18T01:13:47;47.97;;;28.97;;
4047;SDS011;2038;51.728;6.674;2022-12-18T01:16:14;55.53;;;27.13;;
4047;SDS011;2038;51.728;6.674;2022-12-18T01:18:42;50.40;;;28.10;;
4047;SDS011;2038;51.728;6.674;2022-12-18T01:21:10;48.43;;;23.77;;
4047;SDS011;2038;51.728;6.674;2022-12-18T01:23:40;55.63;;;27.53;;
4047;SDS011;2038;51.728;6.674;2022-12-18T01:26:12;56.57;;;26.77;;
4047;SDS011;2038;51.728;6.674;2022-12-18T01:28:41;59.90;;;26.53;;
4047;SDS011;2038;51.728;6.674;2022-12-18T01:31:10;55.67;;;28.40;;
4047;SDS011;2038;51.728;6.674;2022-12-18T01:33:39;61.50;;;29.07;;
4047;SDS011;2038;51.728;6.674;2022-12-18T01:36:06;60.83;;;29.17;;
4047;SDS011;2038;51.728;6.674;2022-12-18T01:38:39;64.27;;;31.70;;
4047;SDS011;2038;51.728;6.674;2022-12-18T01:41:06;57.83;;;30.37;;
4047;SDS011;2038;51.728;6.674;2022-12-18T01:43:47;62.10;;;29.20;;
4047;SDS011;2038;51.728;6.674;2022-12-18T01:46:16;69.10;;;33.57;;
4047;SDS011;2038;51.728;6.674;2022-12-18T01:48:49;61.97;;;30.40;;
4047;SDS011;2038;51.728;6.674;2022-12-18T01:51:23;63.40;;;30.20;;
4047;SDS011;2038;51.728;6.674;2022-12-18T01:53:54;68.77;;;32.00;;
4047;SDS011;2038;51.728;6.674;2022-12-18T01:56:22;66.17;;;33.00;;
4047;SDS011;2038;51.728;6.674;2022-12-18T01:58:50;73.70;;;31.73;;
4047;SDS011;2038;51.728;6.674;2022-12-18T02:01:31;67.17;;;32.53;;
4047;SDS011;2038;51.728;6.674;2022-12-18T02:06:51;61.20;;;31.40;;
4047;SDS011;2038;51.728;6.674;2022-12-18T02:09:50;70.83;;;31.57;;
4047;SDS011;2038;51.728;6.674;2022-12-18T02:12:38;64.20;;;31.57;;
4047;SDS011;2038;51.728;6.674;2022-12-18T02:18:47;67.97;;;32.87;;
4047;SDS011;2038;51.728;6.674;2022-12-18T02:21:34;64.60;;;29.80;;
4047;SDS011;2038;51.728;6.674;2022-12-18T02:27:26;69.97;;;29.57;;
4047;SDS011;2038;51.728;6.674;2022-12-18T02:29:56;74.47;;;29.80;;
4047;SDS011;2038;51.728;6.674;2022-12-18T02:32:30;73.77;;;32.53;;
4047;SDS011;2038;51.728;6.674;2022-12-18T02:35:03;67.57;;;32.03;;
4047;SDS011;2038;51.728;6.674;2022-12-18T02:37:33;59.77;;;30.73;;
4047;SDS011;2038;51.728;6.674;2022-12-18T02:40:04;64.43;;;32.73;;
4047;SDS011;2038;51.728;6.674;2022-12-18T02:42:32;58.13;;;29.10;;
4047;SDS011;2038;51.728;6.674;2022-12-18T02:44:59;63.47;;;28.63;;
4047;SDS011;2038;51.728;6.674;2022-12-18T02:47:27;55.23;;;29.03;;
4047;SDS011;2038;51.728;6.674;2022-12-18T02:50:05;58.77;;;30.00;;
4047;SDS011;2038;51.728;6.674;2022-12-18T02:53:01;51.37;;;28.50;;
4047;SDS011;2038;51.728;6.674;2022-12-18T02:56:12;45.73;;;27.03;;
4047;SDS011;2038;51.728;6.674;2022-12-18T02:58:56;73.10;;;32.70;;
4047;SDS011;2038;51.728;6.674;2022-12-18T03:01:33;64.20;;;28.27;;
4047;SDS011;2038;51.728;6.674;2022-12-18T03:04:17;65.80;;;29.77;;
4047;SDS011;2038;51.728;6.674;2022-12-18T03:06:56;65.83;;;30.47;;
4047;SDS011;2038;51.728;6.674;2022-12-18T03:09:32;68.83;;;29.83;;
4047;SDS011;2038;51.728;6.674;2022-12-18T03:15:08;63.07;;;28.37;;
4047;SDS011;2038;51.728;6.674;2022-12-18T03:17:59;54.37;;;29.33;;
4047;SDS011;2038;51.728;6.674;2022-12-18T03:20:34;54.73;;;27.17;;
4047;SDS011;2038;51.728;6.674;2022-12-18T03:23:07;53.23;;;29.40;;
4047;SDS011;2038;51.728;6.674;2022-12-18T03:25:41;58.83;;;28.60;;
4047;SDS011;2038;51.728;6.674;2022-12-18T03:28:15;62.03;;;27.40;;
4047;SDS011;2038;51.728;6.674;2022-12-18T03:30:46;62.17;;;30.20;;
4047;SDS011;2038;51.728;6.674;2022-12-18T03:33:27;61.30;;;28.60;;
4047;SDS011;2038;51.728;6.674;2022-12-18T03:36:16;57.13;;;28.20;;
4047;SDS011;2038;51.728;6.674;2022-12-18T03:38:43;60.80;;;28.00;;
4047;SDS011;2038;51.728;6.674;2022-12-18T03:43:52;49.27;;;24.80;;
4047;SDS011;2038;51.728;6.674;2022-12-18T03:46:41;60.97;;;28.50;;
4047;SDS011;2038;51.728;6.674;2022-12-18T03:54:55;60.83;;;27.80;;
4047;SDS011;2038;51.728;6.674;2022-12-18T03:57:25;55.30;;;26.13;;
4047;SDS011;2038;51.728;6.674;2022-12-18T03:59:57;51.93;;;27.80;;
4047;SDS011;2038;51.728;6.674;2022-12-18T04:02:31;50.57;;;27.17;;
4047;SDS011;2038;51.728;6.674;2022-12-18T04:05:01;47.97;;;25.50;;
4047;SDS011;2038;51.728;6.674;2022-12-18T04:07:31;59.43;;;27.37;;
4047;SDS011;2038;51.728;6.674;2022-12-18T04:09:58;53.17;;;28.50;;
4047;SDS011;2038;51.728;6.674;2022-12-18T04:12:28;47.87;;;25.17;;
4047;SDS011;2038;51.728;6.674;2022-12-18T04:14:55;53.87;;;27.77;;
4047;SDS011;2038;51.728;6.674;2022-12-18T04:17:21;52.60;;;25.70;;
4047;SDS011;2038;51.728;6.674;2022-12-18T04:19:47;47.20;;;23.90;;
4047;SDS011;2038;51.728;6.674;2022-12-18T04:22:14;58.57;;;26.53;;
4047;SDS011;2038;51.728;6.674;2022-12-18T04:24:40;57.03;;;24.90;;
4047;SDS011;2038;51.728;6.674;2022-12-18T04:27:06;46.33;;;25.10;;
4047;SDS011;2038;51.728;6.674;2022-12-18T04:29:32;47.80;;;25.60;;
4047;SDS011;2038;51.728;6.674;2022-12-18T04:31:59;45.10;;;22.90;;
4047;SDS011;2038;51.728;6.674;2022-12-18T04:34:25;40.87;;;25.17;;
4047;SDS011;2038;51.728;6.674;2022-12-18T04:36:51;41.13;;;23.43;;
4047;SDS011;2038;51.728;6.674;2022-12-18T04:39:17;40.97;;;25.10;;
4047;SDS011;2038;51.728;6.674;2022-12-18T04:41:44;46.23;;;25.57;;
4047;SDS011;2038;51.728;6.674;2022-12-18T04:44:10;57.23;;;26.33;;
4047;SDS011;2038;51.728;6.674;2022-12-18T04:46:36;50.43;;;25.93;;
4047;SDS011;2038;51.728;6.674;2022-12-18T04:49:02;51.30;;;25.20;;
4047;SDS011;2038;51.728;6.674;2022-12-18T04:51:29;58.17;;;26.60;;
4047;SDS011;2038;51.728;6.674;2022-12-18T04:53:55;43.17;;;24.13;;
4047;SDS011;2038;51.728;6.674;2022-12-18T04:56:21;50.90;;;25.60;;
4047;SDS011;2038;51.728;6.674;2022-12-18T04:58:47;53.53;;;24.07;;
4047;SDS011;2038;51.728;6.674;2022-12-18T05:01:14;44.47;;;25.13;;
4047;SDS011;2038;51.728;6.674;2022-12-18T05:03:43;50.90;;;23.60;;
4047;SDS011;2038;51.728;6.674;2022-12-18T05:06:09;46.97;;;23.23;;
4047;SDS011;2038;51.728;6.674;2022-12-18T05:08:36;55.70;;;25.97;;
4047;SDS011;2038;51.728;6.674;2022-12-18T05:11:10;44.47;;;24.63;;
4047;SDS011;2038;51.728;6.674;2022-12-18T05:13:40;41.67;;;22.90;;
4047;SDS011;2038;51.728;6.674;2022-12-18T05:16:08;40.83;;;21.80;;
4047;SDS011;2038;51.728;6.674;2022-12-18T05:18:35;41.00;;;23.83;;
4047;SDS011;2038;51.728;6.674;2022-12-18T05:21:03;39.53;;;21.00;;
4047;SDS011;2038;51.728;6.674;2022-12-18T05:23:29;42.23;;;23.57;;
4047;SDS011;2038;51.728;6.674;2022-12-18T05:26:00;38.83;;;19.87;;
4047;SDS011;2038;51.728;6.674;2022-12-18T05:28:30;41.90;;;24.10;;
4047;SDS011;2038;51.728;6.674;2022-12-18T05:30:59;44.50;;;23.10;;
4047;SDS011;2038;51.728;6.674;2022-12-18T05:33:28;36.73;;;23.00;;
4047;SDS011;2038;51.728;6.674;2022-12-18T05:35:58;42.53;;;23.50;;
4047;SDS011;2038;51.728;6.674;2022-12-18T05:38:31;44.83;;;24.60;;
4047;SDS011;2038;51.728;6.674;2022-12-18T05:40:59;40.03;;;21.67;;
4047;SDS011;2038;51.728;6.674;2022-12-18T05:43:26;48.37;;;26.37;;
4047;SDS011;2038;51.728;6.674;2022-12-18T05:45:53;42.37;;;24.27;;
4047;SDS011;2038;51.728;6.674;2022-12-18T05:48:20;38.63;;;21.90;;
4047;SDS011;2038;51.728;6.674;2022-12-18T05:50:48;47.13;;;22.90;;
4047;SDS011;2038;51.728;6.674;2022-12-18T05:53:16;40.00;;;20.60;;
4047;SDS011;2038;51.728;6.674;2022-12-18T05:55:45;46.93;;;22.17;;
4047;SDS011;2038;51.728;6.674;2022-12-18T05:58:13;36.43;;;22.17;;
4047;SDS011;2038;51.728;6.674;2022-12-18T06:00:41;51.63;;;22.73;;
4047;SDS011;2038;51.728;6.674;2022-12-18T06:03:11;42.03;;;24.10;;
4047;SDS011;2038;51.728;6.674;2022-12-18T06:05:42;40.27;;;21.90;;
4047;SDS011;2038;51.728;6.674;2022-12-18T06:08:11;45.43;;;25.67;;
4047;SDS011;2038;51.728;6.674;2022-12-18T06:10:38;43.03;;;23.80;;
4047;SDS011;2038;51.728;6.674;2022-12-18T06:13:06;47.80;;;22.60;;
4047;SDS011;2038;51.728;6.674;2022-12-18T06:15:35;39.70;;;23.13;;
4047;SDS011;2038;51.728;6.674;2022-12-18T06:18:02;42.00;;;26.30;;
4047;SDS011;2038;51.728;6.674;2022-12-18T06:20:31;35.27;;;22.70;;
4047;SDS011;2038;51.728;6.674;2022-12-18T06:22:58;45.33;;;21.77;;
4047;SDS011;2038;51.728;6.674;2022-12-18T06:25:25;43.00;;;22.90;;
4047;SDS011;2038;51.728;6.674;2022-12-18T06:27:51;38.00;;;19.37;;
4047;SDS011;2038;51.728;6.674;2022-12-18T06:30:17;45.37;;;22.93;;
4047;SDS011;2038;51.728;6.674;2022-12-18T06:32:44;39.90;;;21.03;;
4047;SDS011;2038;51.728;6.674;2022-12-18T06:35:10;40.27;;;22.00;;
4047;SDS011;2038;51.728;6.674;2022-12-18T06:37:36;38.00;;;21.23;;
4047;SDS011;2038;51.728;6.674;2022-12-18T06:40:03;37.20;;;20.63;;
4047;SDS011;2038;51.728;6.674;2022-12-18T06:42:30;35.40;;;19.63;;
4047;SDS011;2038;51.728;6.674;2022-12-18T06:44:57;46.23;;;23.33;;
4047;SDS011;2038;51.728;6.674;2022-12-18T06:47:23;37.57;;;21.07;;
4047;SDS011;2038;51.728;6.674;2022-12-18T06:49:49;35.40;;;20.27;;
4047;SDS011;2038;51.728;6.674;2022-12-18T06:52:15;35.43;;;21.67;;
4047;SDS011;2038;51.728;6.674;2022-12-18T06:54:41;36.80;;;21.07;;
4047;SDS011;2038;51.728;6.674;2022-12-18T06:57:08;39.17;;;18.83;;
4047;SDS011;2038;51.728;6.674;2022-12-18T06:59:34;42.90;;;19.97;;
4047;SDS011;2038;51.728;6.674;2022-12-18T07:02:00;28.73;;;18.13;;
4047;SDS011;2038;51.728;6.674;2022-12-18T07:04:29;34.37;;;19.90;;
4047;SDS011;2038;51.728;6.674;2022-12-18T07:06:56;35.43;;;19.47;;
4047;SDS011;2038;51.728;6.674;2022-12-18T07:09:23;40.27;;;19.43;;
4047;SDS011;2038;51.728;6.674;2022-12-18T07:11:49;34.13;;;19.80;;
4047;SDS011;2038;51.728;6.674;2022-12-18T07:14:15;38.47;;;20.60;;
4047;SDS011;2038;51.728;6.674;2022-12-18T07:16:42;37.77;;;20.70;;
4047;SDS011;2038;51.728;6.674;2022-12-18T07:19:08;37.60;;;19.77;;
4047;SDS011;2038;51.728;6.674;2022-12-18T07:21:34;36.53;;;22.13;;
4047;SDS011;2038;51.728;6.674;2022-12-18T07:24:00;36.93;;;22.53;;
4047;SDS011;2038;51.728;6.674;2022-12-18T07:26:27;34.57;;;20.77;;
4047;SDS011;2038;51.728;6.674;2022-12-18T07:28:56;35.17;;;18.57;;
4047;SDS011;2038;51.728;6.674;2022-12-18T07:31:23;32.07;;;20.97;;
4047;SDS011;2038;51.728;6.674;2022-12-18T07:33:51;35.90;;;20.00;;
4047;SDS011;2038;51.728;6.674;2022-12-18T07:36:17;36.27;;;17.97;;
4047;SDS011;2038;51.728;6.674;2022-12-18T07:38:48;36.67;;;19.10;;
4047;SDS011;2038;51.728;6.674;2022-12-18T07:41:15;35.93;;;19.83;;
4047;SDS011;2038;51.728;6.674;2022-12-18T07:43:42;34.30;;;18.90;;
4047;SDS011;2038;51.728;6.674;2022-12-18T07:46:08;42.47;;;20.07;;
4047;SDS011;2038;51.728;6.674;2022-12-18T07:48:36;35.83;;;19.80;;
4047;SDS011;2038;51.728;6.674;2022-12-18T07:51:03;30.70;;;18.30;;
4047;SDS011;2038;51.728;6.674;2022-12-18T07:53:32;32.57;;;19.00;;
4047;SDS011;2038;51.728;6.674;2022-12-18T07:56:00;35.33;;;22.10;;
4047;SDS011;2038;51.728;6.674;2022-12-18T07:58:33;29.70;;;19.70;;
4047;SDS011;2038;51.728;6.674;2022-12-18T08:01:04;39.43;;;19.73;;
4047;SDS011;2038;51.728;6.674;2022-12-18T08:03:32;34.70;;;19.70;;
4047;SDS011;2038;51.728;6.674;2022-12-18T08:06:00;35.07;;;21.03;;
4047;SDS011;2038;51.728;6.674;2022-12-18T08:08:27;37.80;;;20.50;;
4047;SDS011;2038;51.728;6.674;2022-12-18T08:10:54;38.33;;;20.37;;
4047;SDS011;2038;51.728;6.674;2022-12-18T08:13:21;35.13;;;20.60;;
4047;SDS011;2038;51.728;6.674;2022-12-18T08:15:58;30.90;;;19.33;;
4047;SDS011;2038;51.728;6.674;2022-12-18T08:18:27;36.13;;;19.80;;
4047;SDS011;2038;51.728;6.674;2022-12-18T08:20:54;44.53;;;20.10;;
4047;SDS011;2038;51.728;6.674;2022-12-18T08:23:21;36.87;;;20.97;;
4047;SDS011;2038;51.728;6.674;2022-12-18T08:25:47;33.07;;;20.20;;
4047;SDS011;2038;51.728;6.674;2022-12-18T08:28:17;33.07;;;19.30;;
4047;SDS011;2038;51.728;6.674;2022-12-18T08:30:43;33.60;;;18.80;;
4047;SDS011;2038;51.728;6.674;2022-12-18T08:33:10;26.07;;;16.50;;
4047;SDS011;2038;51.728;6.674;2022-12-18T08:35:36;27.70;;;17.80;;
4047;SDS011;2038;51.728;6.674;2022-12-18T08:38:02;31.07;;;16.80;;
4047;SDS011;2038;51.728;6.674;2022-12-18T08:40:29;28.83;;;16.80;;
4047;SDS011;2038;51.728;6.674;2022-12-18T08:42:55;34.43;;;17.90;;
4047;SDS011;2038;51.728;6.674;2022-12-18T08:45:39;27.33;;;18.00;;
4047;SDS011;2038;51.728;6.674;2022-12-18T08:48:08;34.33;;;18.90;;
4047;SDS011;2038;51.728;6.674;2022-12-18T08:50:34;29.60;;;17.90;;
4047;SDS011;2038;51.728;6.674;2022-12-18T08:53:01;35.30;;;17.30;;
4047;SDS011;2038;51.728;6.674;2022-12-18T08:55:27;24.43;;;16.30;;
4047;SDS011;2038;51.728;6.674;2022-12-18T08:57:53;37.67;;;17.10;;
4047;SDS011;2038;51.728;6.674;2022-12-18T09:00:20;31.20;;;16.53;;
4047;SDS011;2038;51.728;6.674;2022-12-18T09:02:46;23.63;;;16.70;;
4047;SDS011;2038;51.728;6.674;2022-12-18T09:05:12;28.53;;;17.13;;
4047;SDS011;2038;51.728;6.674;2022-12-18T09:07:39;29.43;;;17.30;;
4047;SDS011;2038;51.728;6.674;2022-12-18T09:10:05;25.30;;;15.93;;
4047;SDS011;2038;51.728;6.674;2022-12-18T09:12:32;33.60;;;19.87;;
4047;SDS011;2038;51.728;6.674;2022-12-18T09:14:58;29.83;;;17.93;;
4047;SDS011;2038;51.728;6.674;2022-12-18T09:17:24;29.60;;;18.33;;
4047;SDS011;2038;51.728;6.674;2022-12-18T09:19:51;34.50;;;17.73;;
4047;SDS011;2038;51.728;6.674;2022-12-18T09:22:17;29.10;;;17.93;;
4047;SDS011;2038;51.728;6.674;2022-12-18T09:24:48;24.80;;;15.63;;
4047;SDS011;2038;51.728;6.674;2022-12-18T09:27:14;34.37;;;18.60;;
4047;SDS011;2038;51.728;6.674;2022-12-18T09:29:40;33.07;;;18.13;;
4047;SDS011;2038;51.728;6.674;2022-12-18T09:32:07;30.77;;;17.60;;
4047;SDS011;2038;51.728;6.674;2022-12-18T09:34:33;21.47;;;15.17;;
4047;SDS011;2038;51.728;6.674;2022-12-18T09:37:01;39.97;;;18.33;;
4047;SDS011;2038;51.728;6.674;2022-12-18T09:39:28;30.67;;;16.77;;
4047;SDS011;2038;51.728;6.674;2022-12-18T09:41:54;27.33;;;17.63;;
4047;SDS011;2038;51.728;6.674;2022-12-18T09:44:24;26.03;;;17.27;;
4047;SDS011;2038;51.728;6.674;2022-12-18T09:47:10;25.33;;;14.77;;
4047;SDS011;2038;51.728;6.674;2022-12-18T09:50:01;27.40;;;18.50;;
4047;SDS011;2038;51.728;6.674;2022-12-18T09:52:46;24.57;;;17.50;;
4047;SDS011;2038;51.728;6.674;2022-12-18T10:00:35;25.20;;;16.50;;
4047;SDS011;2038;51.728;6.674;2022-12-18T10:03:11;20.07;;;15.10;;
4047;SDS011;2038;51.728;6.674;2022-12-18T10:08:56;28.00;;;16.07;;
4047;SDS011;2038;51.728;6.674;2022-12-18T10:14:28;22.30;;;14.70;;
4047;SDS011;2038;51.728;6.674;2022-12-18T10:17:41;23.00;;;14.57;;
4047;SDS011;2038;51.728;6.674;2022-12-18T10:26:09;24.03;;;15.40;;
4047;SDS011;2038;51.728;6.674;2022-12-18T10:28:38;21.70;;;15.27;;
4047;SDS011;2038;51.728;6.674;2022-12-18T10:31:06;28.40;;;16.73;;
4047;SDS011;2038;51.728;6.674;2022-12-18T10:33:41;21.53;;;15.53;;
4047;SDS011;2038;51.728;6.674;2022-12-18T10:36:08;26.17;;;16.50;;
4047;SDS011;2038;51.728;6.674;2022-12-18T10:38:35;25.17;;;15.70;;
4047;SDS011;2038;51.728;6.674;2022-12-18T10:41:05;20.77;;;14.63;;
4047;SDS011;2038;51.728;6.674;2022-12-18T10:43:52;29.00;;;16.37;;
4047;SDS011;2038;51.728;6.674;2022-12-18T10:46:41;28.53;;;17.00;;
4047;SDS011;2038;51.728;6.674;2022-12-18T10:49:23;22.10;;;15.30;;
4047;SDS011;2038;51.728;6.674;2022-12-18T10:52:15;24.13;;;15.30;;
4047;SDS011;2038;51.728;6.674;2022-12-18T10:54:54;26.70;;;16.00;;
4047;SDS011;2038;51.728;6.674;2022-12-18T10:57:35;25.50;;;14.73;;
4047;SDS011;2038;51.728;6.674;2022-12-18T11:00:20;29.63;;;16.50;;
4047;SDS011;2038;51.728;6.674;2022-12-18T11:02:55;26.73;;;15.10;;
4047;SDS011;2038;51.728;6.674;2022-12-18T11:05:29;29.20;;;15.00;;
4047;SDS011;2038;51.728;6.674;2022-12-18T11:07:59;20.20;;;12.00;;
4047;SDS011;2038;51.728;6.674;2022-12-18T11:10:35;16.83;;;13.67;;
4047;SDS011;2038;51.728;6.674;2022-12-18T11:13:24;23.43;;;13.40;;
4047;SDS011;2038;51.728;6.674;2022-12-18T11:15:54;27.80;;;14.97;;
4047;SDS011;2038;51.728;6.674;2022-12-18T11:18:31;26.37;;;14.47;;
4047;SDS011;2038;51.728;6.674;2022-12-18T11:21:07;21.67;;;16.23;;
4047;SDS011;2038;51.728;6.674;2022-12-18T11:23:43;20.87;;;13.93;;
4047;SDS011;2038;51.728;6.674;2022-12-18T11:26:17;25.70;;;15.13;;
4047;SDS011;2038;51.728;6.674;2022-12-18T11:28:46;25.60;;;15.50;;
4047;SDS011;2038;51.728;6.674;2022-12-18T11:31:35;22.90;;;15.27;;
4047;SDS011;2038;51.728;6.674;2022-12-18T11:34:21;26.33;;;15.13;;
4047;SDS011;2038;51.728;6.674;2022-12-18T11:36:54;27.27;;;15.90;;
4047;SDS011;2038;51.728;6.674;2022-12-18T11:39:42;22.43;;;15.97;;
4047;SDS011;2038;51.728;6.674;2022-12-18T11:45:33;22.93;;;14.50;;
4047;SDS011;2038;51.728;6.674;2022-12-18T11:48:15;29.37;;;15.93;;
4047;SDS011;2038;51.728;6.674;2022-12-18T11:53:24;29.00;;;16.70;;
4047;SDS011;2038;51.728;6.674;2022-12-18T11:55:58;23.60;;;15.03;;
4047;SDS011;2038;51.728;6.674;2022-12-18T12:02:19;20.17;;;15.57;;
4047;SDS011;2038;51.728;6.674;2022-12-18T12:05:19;29.50;;;14.77;;
4047;SDS011;2038;51.728;6.674;2022-12-18T12:07:59;24.37;;;15.40;;
4047;SDS011;2038;51.728;6.674;2022-12-18T12:16:58;22.23;;;13.90;;
4047;SDS011;2038;51.728;6.674;2022-12-18T12:19:49;26.00;;;15.77;;
4047;SDS011;2038;51.728;6.674;2022-12-18T12:22:49;24.03;;;16.73;;
4047;SDS011;2038;51.728;6.674;2022-12-18T12:25:57;25.13;;;16.90;;
4047;SDS011;2038;51.728;6.674;2022-12-18T12:34:54;26.47;;;14.20;;
4047;SDS011;2038;51.728;6.674;2022-12-18T12:37:40;21.33;;;14.70;;
4047;SDS011;2038;51.728;6.674;2022-12-18T12:40:19;23.33;;;15.70;;
4047;SDS011;2038;51.728;6.674;2022-12-18T12:42:57;24.57;;;16.27;;
4047;SDS011;2038;51.728;6.674;2022-12-18T12:46:03;22.67;;;14.77;;
4047;SDS011;2038;51.728;6.674;2022-12-18T12:51:32;27.93;;;15.63;;
4047;SDS011;2038;51.728;6.674;2022-12-18T12:54:06;28.47;;;17.27;;
4047;SDS011;2038;51.728;6.674;2022-12-18T12:56:45;22.20;;;15.23;;
4047;SDS011;2038;51.728;6.674;2022-12-18T13:02:22;28.30;;;18.10;;
4047;SDS011;2038;51.728;6.674;2022-12-18T13:07:50;25.73;;;18.37;;
4047;SDS011;2038;51.728;6.674;2022-12-18T13:10:37;27.87;;;17.97;;
4047;SDS011;2038;51.728;6.674;2022-12-18T13:13:10;24.33;;;17.43;;
4047;SDS011;2038;51.728;6.674;2022-12-18T13:16:03;27.17;;;16.60;;
4047;SDS011;2038;51.728;6.674;2022-12-18T13:18:32;21.90;;;16.70;;
4047;SDS011;2038;51.728;6.674;2022-12-18T13:23:35;25.17;;;18.60;;
4047;SDS011;2038;51.728;6.674;2022-12-18T13:34:20;27.27;;;18.03;;
4047;SDS011;2038;51.728;6.674;2022-12-18T13:36:54;22.93;;;16.30;;
4047;SDS011;2038;51.728;6.674;2022-12-18T13:39:56;27.07;;;17.87;;
4047;SDS011;2038;51.728;6.674;2022-12-18T13:45:58;21.87;;;15.00;;
4047;SDS011;2038;51.728;6.674;2022-12-18T13:48:03;28.93;;;14.73;;
4047;SDS011;2038;51.728;6.674;2022-12-18T13:50:41;27.70;;;16.27;;
4047;SDS011;2038;51.728;6.674;2022-12-18T13:53:13;24.47;;;16.47;;
4047;SDS011;2038;51.728;6.674;2022-12-18T13:55:49;23.40;;;16.20;;
4047;SDS011;2038;51.728;6.674;2022-12-18T13:58:16;25.87;;;17.10;;
4047;SDS011;2038;51.728;6.674;2022-12-18T14:00:42;24.20;;;16.67;;
4047;SDS011;2038;51.728;6.674;2022-12-18T14:03:19;26.37;;;16.67;;
4047;SDS011;2038;51.728;6.674;2022-12-18T14:05:52;30.23;;;16.60;;
4047;SDS011;2038;51.728;6.674;2022-12-18T14:08:24;21.13;;;15.03;;
4047;SDS011;2038;51.728;6.674;2022-12-18T14:10:59;26.03;;;16.37;;
4047;SDS011;2038;51.728;6.674;2022-12-18T14:13:30;27.83;;;16.87;;
4047;SDS011;2038;51.728;6.674;2022-12-18T14:16:03;30.87;;;17.90;;
4047;SDS011;2038;51.728;6.674;2022-12-18T14:21:18;20.30;;;16.00;;
4047;SDS011;2038;51.728;6.674;2022-12-18T14:26:41;26.03;;;16.67;;
4047;SDS011;2038;51.728;6.674;2022-12-18T14:32:11;31.93;;;20.40;;
4047;SDS011;2038;51.728;6.674;2022-12-18T14:34:44;39.90;;;22.27;;
4047;SDS011;2038;51.728;6.674;2022-12-18T14:37:17;58.57;;;27.00;;
4047;SDS011;2038;51.728;6.674;2022-12-18T14:40:00;43.13;;;24.40;;
4047;SDS011;2038;51.728;6.674;2022-12-18T14:42:29;44.00;;;27.27;;
4047;SDS011;2038;51.728;6.674;2022-12-18T14:48:00;30.23;;;19.07;;
4047;SDS011;2038;51.728;6.674;2022-12-18T14:50:33;26.73;;;17.17;;
4047;SDS011;2038;51.728;6.674;2022-12-18T14:52:59;23.53;;;17.20;;
4047;SDS011;2038;51.728;6.674;2022-12-18T14:55:26;28.13;;;16.80;;
4047;SDS011;2038;51.728;6.674;2022-12-18T14:57:53;30.00;;;18.67;;
4047;SDS011;2038;51.728;6.674;2022-12-18T15:00:22;28.80;;;18.13;;
4047;SDS011;2038;51.728;6.674;2022-12-18T15:02:54;30.43;;;19.70;;
4047;SDS011;2038;51.728;6.674;2022-12-18T15:07:57;30.03;;;18.83;;
4047;SDS011;2038;51.728;6.674;2022-12-18T15:10:26;33.50;;;20.90;;
4047;SDS011;2038;51.728;6.674;2022-12-18T15:20:31;34.93;;;20.93;;
4047;SDS011;2038;51.728;6.674;2022-12-18T15:23:04;23.63;;;17.77;;
4047;SDS011;2038;51.728;6.674;2022-12-18T15:25:44;29.53;;;18.23;;
4047;SDS011;2038;51.728;6.674;2022-12-18T15:28:22;33.80;;;20.20;;
4047;SDS011;2038;51.728;6.674;2022-12-18T15:33:38;31.03;;;19.80;;
4047;SDS011;2038;51.728;6.674;2022-12-18T15:36:09;25.03;;;18.47;;
4047;SDS011;2038;51.728;6.674;2022-12-18T15:38:43;28.03;;;18.40;;
4047;SDS011;2038;51.728;6.674;2022-12-18T15:41:17;27.83;;;16.33;;
4047;SDS011;2038;51.728;6.674;2022-12-18T15:43:46;30.57;;;17.43;;
4047;SDS011;2038;51.728;6.674;2022-12-18T15:46:16;32.87;;;19.70;;
4047;SDS011;2038;51.728;6.674;2022-12-18T15:48:46;31.40;;;17.57;;
4047;SDS011;2038;51.728;6.674;2022-12-18T15:51:34;39.20;;;21.33;;
4047;SDS011;2038;51.728;6.674;2022-12-18T15:54:03;28.00;;;18.50;;
4047;SDS011;2038;51.728;6.674;2022-12-18T15:56:36;28.50;;;18.73;;
4047;SDS011;2038;51.728;6.674;2022-12-18T15:59:22;41.00;;;23.40;;
4047;SDS011;2038;51.728;6.674;2022-12-18T16:01:49;33.93;;;22.03;;
4047;SDS011;2038;51.728;6.674;2022-12-18T16:04:18;29.70;;;18.60;;
4047;SDS011;2038;51.728;6.674;2022-12-18T16:06:47;31.17;;;19.27;;
4047;SDS011;2038;51.728;6.674;2022-12-18T16:09:13;33.30;;;18.37;;
4047;SDS011;2038;51.728;6.674;2022-12-18T16:11:41;29.73;;;19.20;;
4047;SDS011;2038;51.728;6.674;2022-12-18T16:16:47;32.63;;;19.33;;
4047;SDS011;2038;51.728;6.674;2022-12-18T16:19:16;29.20;;;19.40;;
4047;SDS011;2038;51.728;6.674;2022-12-18T16:21:43;26.57;;;17.27;;
4047;SDS011;2038;51.728;6.674;2022-12-18T16:24:15;24.40;;;16.40;;
4047;SDS011;2038;51.728;6.674;2022-12-18T16:26:51;25.13;;;17.30;;
4047;SDS011;2038;51.728;6.674;2022-12-18T16:29:19;26.73;;;17.47;;
4047;SDS011;2038;51.728;6.674;2022-12-18T16:31:51;29.13;;;17.73;;
4047;SDS011;2038;51.728;6.674;2022-12-18T16:34:23;31.80;;;20.63;;
4047;SDS011;2038;51.728;6.674;2022-12-18T16:36:58;31.20;;;20.47;;
4047;SDS011;2038;51.728;6.674;2022-12-18T16:39:26;33.13;;;20.63;;
4047;SDS011;2038;51.728;6.674;2022-12-18T16:41:55;33.27;;;20.40;;
4047;SDS011;2038;51.728;6.674;2022-12-18T16:44:21;31.90;;;17.47;;
4047;SDS011;2038;51.728;6.674;2022-12-18T16:46:48;31.87;;;19.30;;
4047;SDS011;2038;51.728;6.674;2022-12-18T16:49:14;33.87;;;18.10;;
4047;SDS011;2038;51.728;6.674;2022-12-18T16:51:43;26.03;;;17.13;;
4047;SDS011;2038;51.728;6.674;2022-12-18T16:54:12;32.87;;;20.73;;
4047;SDS011;2038;51.728;6.674;2022-12-18T16:56:38;38.00;;;20.57;;
4047;SDS011;2038;51.728;6.674;2022-12-18T16:59:06;29.90;;;19.60;;
4047;SDS011;2038;51.728;6.674;2022-12-18T17:01:35;35.03;;;19.80;;
4047;SDS011;2038;51.728;6.674;2022-12-18T17:04:03;31.60;;;20.03;;
4047;SDS011;2038;51.728;6.674;2022-12-18T17:06:31;36.77;;;20.00;;